createdAt,value
2022-12-07T00:03:33.592Z,15.20
2022-12-07T00:06:21.414Z,15.75
2022-12-07T00:09:12.215Z,15.25
2022-12-07T00:11:59.329Z,14.07
2022-12-07T00:14:46.304Z,15.02
2022-12-07T00:17:34.782Z,15.85
2022-12-07T00:20:21.807Z,15.45
2022-12-07T00:23:08.876Z,15.85
2022-12-07T00:25:56.014Z,15.30
2022-12-07T00:28:47.080Z,14.65
2022-12-07T00:31:40.019Z,14.90
2022-12-07T00:34:27.494Z,15.27
2022-12-07T00:37:14.590Z,16.10
2022-12-07T00:40:02.004Z,15.13
2022-12-07T00:42:49.176Z,13.60
2022-12-07T00:45:36.242Z,14.63
2022-12-07T00:48:24.109Z,14.25
2022-12-07T00:51:13.438Z,13.23
2022-12-07T00:54:00.514Z,15.23
2022-12-07T00:56:47.615Z,14.35
2022-12-07T00:59:34.623Z,14.45
2022-12-07T01:02:21.788Z,15.23
2022-12-07T01:05:09.264Z,14.60
2022-12-07T01:07:56.348Z,14.65
2022-12-07T01:10:43.415Z,14.75
2022-12-07T01:13:30.846Z,15.23
2022-12-07T01:16:19.640Z,15.60
2022-12-07T01:19:06.912Z,14.88
2022-12-07T01:21:53.948Z,15.13
2022-12-07T01:24:40.941Z,15.75
2022-12-07T01:27:27.969Z,15.60
2022-12-07T01:30:15.196Z,14.35
2022-12-07T01:33:02.237Z,16.17
2022-12-07T01:35:49.266Z,15.40
2022-12-07T01:38:36.320Z,15.65
2022-12-07T01:41:24.485Z,16.65
2022-12-07T01:44:13.351Z,16.70
2022-12-07T01:47:02.880Z,16.10
2022-12-07T01:49:50.525Z,15.80
2022-12-07T01:52:39.567Z,17.30
2022-12-07T01:55:27.439Z,16.55
2022-12-07T01:58:16.157Z,17.48
2022-12-07T02:01:03.379Z,17.08
2022-12-07T02:03:50.732Z,16.92
2022-12-07T02:06:39.472Z,17.20
2022-12-07T02:09:26.547Z,17.58
2022-12-07T02:12:13.713Z,16.30
2022-12-07T02:15:00.728Z,17.60
2022-12-07T02:18:20.255Z,16.30
2022-12-07T02:21:47.317Z,16.00
2022-12-07T02:25:10.400Z,16.50
2022-12-07T02:28:30.146Z,15.13
2022-12-07T02:31:21.831Z,17.30
2022-12-07T02:34:32.032Z,16.65
2022-12-07T02:37:43.663Z,15.85
2022-12-07T02:40:36.436Z,16.15
2022-12-07T02:43:28.464Z,16.23
2022-12-07T02:46:21.915Z,16.25
2022-12-07T02:49:10.076Z,16.08
2022-12-07T02:51:57.456Z,15.32
2022-12-07T02:54:44.471Z,15.50
2022-12-07T02:57:44.551Z,15.73
2022-12-07T03:00:37.629Z,15.07
2022-12-07T03:03:25.666Z,15.85
2022-12-07T03:06:29.296Z,15.15
2022-12-07T03:09:24.527Z,15.40
2022-12-07T03:12:18.860Z,14.43
2022-12-07T03:15:17.478Z,14.55
2022-12-07T03:18:06.336Z,14.63
2022-12-07T03:20:57.179Z,14.85
2022-12-07T03:23:49.032Z,14.05
2022-12-07T03:26:40.242Z,14.18
2022-12-07T03:29:32.675Z,14.65
2022-12-07T03:32:37.592Z,14.60
2022-12-07T03:35:31.848Z,15.23
2022-12-07T03:38:26.648Z,14.23
2022-12-07T03:41:23.535Z,13.57
2022-12-07T03:44:10.926Z,13.90
2022-12-07T03:47:16.535Z,14.48
2022-12-07T03:50:03.764Z,15.35
2022-12-07T03:52:57.811Z,13.75
2022-12-07T03:55:48.726Z,15.00
2022-12-07T03:58:36.855Z,14.82
2022-12-07T04:01:25.216Z,14.07
2022-12-07T04:04:12.374Z,14.75
2022-12-07T04:06:59.862Z,14.20
2022-12-07T04:09:46.836Z,14.02
2022-12-07T04:12:33.962Z,14.52
2022-12-07T04:15:21.174Z,14.20
2022-12-07T04:18:08.320Z,12.98
2022-12-07T04:20:55.340Z,13.63
2022-12-07T04:23:42.417Z,12.40
2022-12-07T04:26:29.467Z,12.55
2022-12-07T04:29:17.913Z,12.02
2022-12-07T04:32:05.172Z,12.05
2022-12-07T04:34:55.657Z,12.05
2022-12-07T04:37:43.141Z,12.00
2022-12-07T04:40:30.200Z,11.18
2022-12-07T04:43:17.227Z,10.45
2022-12-07T04:46:04.527Z,10.88
2022-12-07T04:48:52.192Z,11.32
2022-12-07T04:51:39.273Z,10.70
2022-12-07T04:54:26.290Z,10.38
2022-12-07T04:57:13.315Z,10.40
2022-12-07T05:00:00.794Z,10.00
2022-12-07T05:02:48.091Z,10.73
2022-12-07T05:05:35.121Z,10.23
2022-12-07T05:08:22.191Z,9.68
2022-12-07T05:11:10.180Z,9.80
2022-12-07T05:13:58.057Z,9.48
2022-12-07T05:16:47.710Z,9.98
2022-12-07T05:19:34.740Z,9.80
2022-12-07T05:22:22.466Z,9.27
2022-12-07T05:25:10.317Z,8.77
2022-12-07T05:27:57.621Z,8.18
2022-12-07T05:30:44.619Z,9.00
2022-12-07T05:33:31.723Z,8.55
2022-12-07T05:36:18.762Z,9.07
2022-12-07T05:39:05.878Z,8.27
2022-12-07T05:42:11.345Z,8.48
2022-12-07T05:44:58.436Z,7.85
2022-12-07T05:47:45.432Z,8.82
2022-12-07T05:50:32.516Z,8.45
2022-12-07T05:53:23.189Z,8.25
2022-12-07T05:56:10.532Z,8.20
2022-12-07T05:59:15.910Z,7.50
2022-12-07T06:02:14.881Z,8.20
2022-12-07T06:05:02.101Z,8.05
2022-12-07T06:07:49.116Z,8.85
2022-12-07T06:10:36.127Z,8.25
2022-12-07T06:13:23.061Z,7.07
2022-12-07T06:16:10.093Z,8.05
2022-12-07T06:18:57.094Z,7.47
2022-12-07T06:21:44.320Z,7.30
2022-12-07T06:24:32.591Z,7.18
2022-12-07T06:27:19.647Z,7.38
2022-12-07T06:30:07.814Z,7.50
2022-12-07T06:32:54.926Z,6.95
2022-12-07T06:35:42.561Z,7.13
2022-12-07T06:38:29.590Z,6.82
2022-12-07T06:41:16.749Z,6.70
2022-12-07T06:44:05.027Z,7.55
2022-12-07T06:47:06.722Z,7.57
2022-12-07T06:50:00.025Z,6.65
2022-12-07T06:52:47.106Z,7.40
2022-12-07T06:55:34.189Z,6.70
2022-12-07T06:58:21.197Z,6.75
2022-12-07T07:01:13.215Z,6.72
2022-12-07T07:04:00.591Z,6.72
2022-12-07T07:06:48.287Z,6.45
2022-12-07T07:09:35.294Z,6.80
2022-12-07T07:12:22.389Z,5.80
2022-12-07T07:15:10.725Z,6.53
2022-12-07T07:18:00.626Z,6.85
2022-12-07T07:20:51.804Z,6.80
2022-12-07T07:23:38.857Z,6.43
2022-12-07T07:26:25.948Z,6.68
2022-12-07T07:29:13.067Z,6.25
2022-12-07T07:32:06.410Z,7.00
2022-12-07T07:34:54.005Z,7.43
2022-12-07T07:37:41.862Z,6.78
2022-12-07T07:40:32.495Z,7.03
2022-12-07T07:43:19.507Z,7.18
2022-12-07T07:46:06.755Z,6.35
2022-12-07T07:48:53.812Z,6.95
2022-12-07T07:51:40.895Z,6.28
2022-12-07T07:54:27.921Z,6.43
2022-12-07T07:57:15.270Z,7.03
2022-12-07T08:00:05.020Z,7.15
2022-12-07T08:02:52.337Z,6.60
2022-12-07T08:05:39.567Z,7.15
2022-12-07T08:08:26.767Z,6.80
2022-12-07T08:11:13.806Z,6.90
2022-12-07T08:14:00.997Z,6.75
2022-12-07T08:16:48.050Z,7.03
2022-12-07T08:19:35.750Z,7.10
2022-12-07T08:22:22.735Z,7.25
2022-12-07T08:25:09.775Z,7.80
2022-12-07T08:27:57.290Z,7.60
2022-12-07T08:30:44.394Z,7.55
2022-12-07T08:33:31.447Z,7.10
2022-12-07T08:36:19.184Z,7.80
2022-12-07T08:42:14.067Z,7.25
2022-12-07T08:45:01.099Z,7.18
2022-12-07T08:48:05.093Z,7.88
2022-12-07T08:50:53.145Z,7.85
2022-12-07T08:53:41.016Z,7.72
2022-12-07T08:56:28.667Z,8.25
2022-12-07T08:59:18.347Z,7.28
2022-12-07T09:02:07.232Z,7.68
2022-12-07T09:04:54.398Z,7.63
2022-12-07T09:07:43.418Z,7.50
2022-12-07T09:10:30.855Z,7.43
2022-12-07T09:13:17.967Z,7.63
2022-12-07T09:16:05.292Z,7.32
2022-12-07T09:18:52.355Z,7.78
2022-12-07T09:21:39.383Z,7.97
2022-12-07T09:24:26.396Z,7.07
2022-12-07T09:27:13.777Z,7.20
2022-12-07T09:30:01.311Z,7.95
2022-12-07T09:32:48.654Z,7.68
2022-12-07T09:35:35.637Z,6.68
2022-12-07T09:38:23.178Z,6.72
2022-12-07T09:41:10.271Z,7.28
2022-12-07T09:44:06.125Z,6.93
2022-12-07T09:46:54.226Z,7.10
2022-12-07T09:49:41.356Z,6.72
2022-12-07T09:52:34.220Z,6.40
2022-12-07T09:55:29.887Z,6.70
2022-12-07T09:58:28.333Z,6.22
2022-12-07T10:04:03.101Z,6.82
2022-12-07T10:06:52.313Z,5.80
2022-12-07T10:09:39.374Z,6.57
2022-12-07T10:12:26.441Z,6.50
2022-12-07T10:15:14.825Z,6.35
2022-12-07T10:18:02.331Z,6.38
2022-12-07T10:20:49.749Z,6.43
2022-12-07T10:23:38.806Z,6.53
2022-12-07T10:26:43.102Z,6.22
2022-12-07T10:29:39.463Z,6.32
2022-12-07T10:32:35.710Z,7.18
2022-12-07T10:35:31.643Z,7.03
2022-12-07T10:38:18.752Z,5.90
2022-12-07T10:41:09.406Z,6.93
2022-12-07T10:43:58.260Z,7.10
2022-12-07T10:47:03.778Z,6.70
2022-12-07T10:50:07.787Z,6.82
2022-12-07T10:53:14.984Z,6.65
2022-12-07T10:56:43.078Z,6.47
2022-12-07T10:59:49.106Z,6.88
2022-12-07T11:03:27.452Z,7.55
2022-12-07T11:06:23.523Z,6.55
2022-12-07T11:10:07.445Z,7.53
2022-12-07T11:12:58.120Z,7.28
2022-12-07T11:16:22.923Z,7.32
2022-12-07T11:20:05.866Z,7.60
2022-12-07T11:23:05.465Z,7.38
2022-12-07T11:26:01.816Z,7.15
2022-12-07T11:29:07.240Z,7.22
2022-12-07T11:32:14.679Z,7.03
2022-12-07T11:35:15.005Z,8.52
2022-12-07T11:38:28.162Z,6.32
2022-12-07T11:41:24.808Z,5.70
2022-12-07T11:44:38.110Z,6.32
2022-12-07T11:47:49.376Z,6.30
2022-12-07T11:50:46.568Z,6.90
2022-12-07T11:53:51.403Z,10.00
2022-12-07T11:56:39.063Z,8.18
2022-12-07T11:59:46.945Z,8.30
2022-12-07T12:02:43.236Z,7.90
2022-12-07T12:05:31.268Z,6.88
2022-12-07T12:15:15.010Z,6.68
2022-12-07T12:18:24.122Z,6.95
2022-12-07T12:21:19.853Z,6.63
2022-12-07T12:24:21.861Z,7.70
2022-12-07T12:27:25.101Z,7.72
2022-12-07T12:30:40.577Z,7.70
2022-12-07T12:33:31.555Z,6.07
2022-12-07T12:36:25.313Z,6.82
2022-12-07T12:39:20.157Z,6.45
2022-12-07T12:42:19.841Z,6.35
2022-12-07T12:45:25.717Z,6.70
2022-12-07T12:48:31.167Z,7.22
2022-12-07T12:51:44.710Z,7.55
2022-12-07T12:54:38.175Z,5.97
2022-12-07T12:57:33.090Z,5.90
2022-12-07T13:00:22.752Z,7.28
2022-12-07T13:03:25.210Z,7.75
2022-12-07T13:06:27.731Z,7.50
2022-12-07T13:09:28.147Z,8.07
2022-12-07T13:12:17.403Z,7.38
2022-12-07T13:15:05.072Z,7.60
2022-12-07T13:17:57.056Z,7.30
2022-12-07T13:20:57.794Z,6.78
2022-12-07T13:23:44.896Z,6.93
2022-12-07T13:26:31.996Z,7.63
2022-12-07T13:29:24.593Z,10.68
2022-12-07T13:32:30.856Z,7.78
2022-12-07T13:35:38.869Z,7.07
2022-12-07T13:38:30.886Z,9.75
2022-12-07T13:41:20.383Z,8.60
2022-12-07T13:44:21.571Z,6.63
2022-12-07T13:47:13.643Z,7.30
2022-12-07T13:50:00.770Z,9.45
2022-12-07T13:52:49.304Z,7.07
2022-12-07T13:55:36.588Z,6.90
2022-12-07T13:58:24.094Z,6.97
2022-12-07T14:01:11.445Z,6.47
2022-12-07T14:04:28.961Z,7.10
2022-12-07T14:07:26.419Z,6.57
2022-12-07T14:10:41.308Z,6.93
2022-12-07T14:13:31.361Z,6.10
2022-12-07T14:16:18.471Z,6.53
2022-12-07T14:19:26.826Z,7.28
2022-12-07T14:22:39.074Z,6.60
2022-12-07T14:25:29.262Z,7.93
2022-12-07T14:31:30.561Z,8.10
2022-12-07T14:34:18.190Z,8.35
2022-12-07T14:37:08.304Z,8.07
2022-12-07T14:39:55.937Z,7.85
2022-12-07T14:42:43.954Z,7.80
2022-12-07T14:45:31.501Z,7.85
2022-12-07T14:54:34.441Z,8.57
2022-12-07T14:57:21.592Z,6.97
2022-12-07T15:00:14.331Z,7.35
2022-12-07T15:03:02.501Z,7.22
2022-12-07T15:05:52.993Z,8.13
2022-12-07T15:08:43.452Z,7.80
2022-12-07T15:11:32.301Z,8.15
2022-12-07T15:14:19.443Z,8.45
2022-12-07T15:17:09.751Z,8.07
2022-12-07T15:19:59.082Z,7.50
2022-12-07T15:22:46.244Z,7.63
2022-12-07T15:25:33.810Z,8.00
2022-12-07T15:28:20.808Z,6.85
2022-12-07T15:31:46.551Z,7.20
2022-12-07T15:34:24.213Z,8.32
2022-12-07T15:37:11.345Z,7.95
2022-12-07T15:40:02.670Z,7.90
2022-12-07T15:42:52.932Z,8.23
2022-12-07T15:45:39.901Z,8.48
2022-12-07T15:48:28.612Z,8.00
2022-12-07T15:51:20.191Z,8.63
2022-12-07T15:54:17.125Z,8.43
2022-12-07T15:57:04.215Z,8.10
2022-12-07T15:59:52.530Z,9.75
2022-12-07T16:02:40.244Z,9.07
2022-12-07T16:05:27.577Z,8.77
2022-12-07T16:08:14.833Z,8.63
2022-12-07T16:11:07.143Z,8.15
2022-12-07T16:13:54.371Z,8.65
2022-12-07T16:16:41.692Z,9.57
2022-12-07T16:19:28.891Z,9.00
2022-12-07T16:24:50.345Z,10.25
2022-12-07T16:27:37.409Z,9.45
2022-12-07T16:30:24.468Z,9.20
2022-12-07T16:33:11.960Z,8.98
2022-12-07T16:35:59.581Z,9.98
2022-12-07T16:38:51.920Z,12.77
2022-12-07T16:41:39.473Z,10.57
2022-12-07T16:44:26.598Z,10.05
2022-12-07T16:47:13.623Z,10.57
2022-12-07T16:50:00.749Z,10.40
2022-12-07T16:52:47.897Z,11.10
2022-12-07T16:55:46.128Z,15.52
2022-12-07T16:58:33.211Z,13.02
2022-12-07T17:01:23.698Z,10.70
2022-12-07T17:04:11.986Z,10.77
2022-12-07T17:07:00.084Z,11.88
2022-12-07T17:09:47.600Z,11.15
2022-12-07T17:12:34.834Z,12.38
2022-12-07T17:15:22.101Z,11.20
2022-12-07T17:18:09.393Z,12.30
2022-12-07T17:21:01.068Z,10.82
2022-12-07T17:23:52.427Z,12.00
2022-12-07T17:26:39.800Z,10.73
2022-12-07T17:29:26.972Z,9.93
2022-12-07T17:32:14.107Z,10.60
2022-12-07T17:35:02.216Z,10.57
2022-12-07T17:37:51.249Z,10.68
2022-12-07T17:40:38.905Z,11.88
2022-12-07T17:43:26.014Z,12.55
2022-12-07T17:46:13.431Z,11.02
2022-12-07T17:49:01.773Z,10.93
2022-12-07T17:52:07.595Z,11.23
2022-12-07T17:54:54.930Z,11.52
2022-12-07T17:57:42.801Z,11.90
2022-12-07T18:00:30.519Z,12.20
2022-12-07T18:03:17.794Z,12.55
2022-12-07T18:06:05.437Z,12.77
2022-12-07T18:08:53.182Z,12.57
2022-12-07T18:11:40.788Z,11.88
2022-12-07T18:14:28.000Z,11.45
2022-12-07T18:17:15.030Z,11.93
2022-12-07T18:20:02.191Z,11.88
2022-12-07T18:22:49.646Z,11.20
2022-12-07T18:25:37.046Z,12.63
2022-12-07T18:28:24.834Z,11.77
2022-12-07T18:31:15.360Z,11.32
2022-12-07T18:34:05.426Z,13.15
2022-12-07T18:36:53.730Z,12.07
2022-12-07T18:39:41.211Z,11.98
2022-12-07T18:42:28.727Z,11.90
2022-12-07T18:45:16.478Z,12.75
2022-12-07T18:48:05.884Z,14.20
2022-12-07T18:51:03.717Z,27.13
2022-12-07T18:53:51.331Z,30.92
2022-12-07T18:56:38.706Z,25.35
2022-12-07T18:59:44.794Z,16.23
2022-12-07T19:02:32.847Z,16.13
2022-12-07T19:05:21.747Z,14.65
2022-12-07T19:08:09.879Z,14.07
2022-12-07T19:11:20.850Z,14.45
2022-12-07T19:14:11.657Z,13.60
2022-12-07T19:17:03.069Z,13.82
2022-12-07T19:19:51.046Z,14.25
2022-12-07T19:22:38.820Z,13.52
2022-12-07T19:25:26.681Z,12.50
2022-12-07T19:28:14.217Z,13.02
2022-12-07T19:31:09.532Z,13.70
2022-12-07T19:33:57.147Z,11.90
2022-12-07T19:36:46.316Z,12.00
2022-12-07T19:39:34.224Z,12.83
2022-12-07T19:42:22.284Z,16.52
2022-12-07T19:45:10.842Z,35.17
2022-12-07T19:47:58.681Z,47.10
2022-12-07T19:50:47.987Z,40.78
2022-12-07T19:53:35.906Z,16.20
2022-12-07T19:56:24.959Z,13.13
2022-12-07T19:59:14.301Z,14.90
2022-12-07T20:02:02.419Z,14.32
2022-12-07T20:04:50.442Z,12.30
2022-12-07T20:07:39.719Z,12.75
2022-12-07T20:10:28.058Z,11.73
2022-12-07T20:13:30.356Z,12.00
2022-12-07T20:16:20.166Z,12.13
2022-12-07T20:19:10.055Z,11.50
2022-12-07T20:21:59.065Z,11.07
2022-12-07T20:24:46.497Z,11.45
2022-12-07T20:27:40.751Z,11.18
2022-12-07T20:30:28.820Z,12.20
2022-12-07T20:33:16.826Z,13.30
2022-12-07T20:36:06.070Z,14.25
2022-12-07T20:38:54.136Z,15.00
2022-12-07T20:42:00.937Z,12.35
2022-12-07T20:44:48.265Z,12.63
2022-12-07T20:47:37.372Z,13.45
2022-12-07T20:50:25.049Z,12.40
2022-12-07T20:53:12.284Z,11.80
2022-12-07T20:55:59.677Z,12.38
2022-12-07T20:58:46.878Z,12.98
2022-12-07T21:01:34.381Z,13.23
2022-12-07T21:04:22.029Z,11.85
2022-12-07T21:07:09.310Z,10.95
2022-12-07T21:09:57.042Z,12.30
2022-12-07T21:12:44.219Z,12.68
2022-12-07T21:15:31.671Z,17.38
2022-12-07T21:18:18.790Z,19.63
2022-12-07T21:21:07.345Z,17.60
2022-12-07T21:24:00.215Z,15.27
2022-12-07T21:26:49.048Z,17.27
2022-12-07T21:29:43.662Z,13.85
2022-12-07T21:32:31.689Z,14.25
2022-12-07T21:35:18.915Z,12.30
2022-12-07T21:38:05.979Z,12.57
2022-12-07T21:40:53.074Z,11.93
2022-12-07T21:43:40.421Z,12.73
2022-12-07T21:46:33.794Z,11.95
2022-12-07T21:49:21.765Z,11.82
2022-12-07T21:52:09.167Z,12.40
2022-12-07T21:54:56.332Z,11.50
2022-12-07T21:57:43.381Z,11.02
2022-12-07T22:00:31.137Z,11.32
2022-12-07T22:03:18.220Z,10.85
2022-12-07T22:06:05.417Z,11.15
2022-12-07T22:08:53.574Z,11.45
2022-12-07T22:11:40.720Z,11.48
2022-12-07T22:14:46.367Z,11.98
2022-12-07T22:17:34.087Z,12.02
2022-12-07T22:20:22.652Z,11.80
2022-12-07T22:23:09.685Z,11.77
2022-12-07T22:25:56.635Z,11.65
2022-12-07T22:28:45.054Z,11.82
2022-12-07T22:31:32.443Z,12.05
2022-12-07T22:34:19.585Z,12.05
2022-12-07T22:37:06.544Z,11.40
2022-12-07T22:39:53.584Z,14.65
2022-12-07T22:42:40.683Z,12.13
2022-12-07T22:45:27.828Z,26.00
2022-12-07T22:48:14.977Z,36.42
2022-12-07T22:51:02.340Z,14.05
2022-12-07T22:53:50.269Z,15.43
2022-12-07T22:56:38.272Z,14.43
2022-12-07T22:59:25.228Z,22.45
2022-12-07T23:02:13.009Z,16.88
2022-12-07T23:05:00.157Z,23.30
2022-12-07T23:07:47.451Z,23.42
2022-12-07T23:10:34.636Z,12.82
2022-12-07T23:13:35.819Z,29.48
2022-12-07T23:16:22.990Z,45.17
2022-12-07T23:19:10.231Z,24.45
2022-12-07T23:21:57.581Z,13.25
2022-12-07T23:24:44.875Z,12.65
2022-12-07T23:27:32.009Z,12.32
2022-12-07T23:30:19.138Z,12.68
2022-12-07T23:33:06.358Z,11.77
2022-12-07T23:35:53.452Z,28.63
2022-12-07T23:38:42.228Z,13.48
2022-12-07T23:41:30.831Z,11.38
2022-12-07T23:44:17.916Z,12.07
2022-12-07T23:47:05.189Z,12.50
2022-12-07T23:49:52.307Z,13.32
2022-12-07T23:52:39.382Z,12.60
2022-12-07T23:55:26.386Z,14.23
2022-12-07T23:58:13.427Z,19.25
